sensor_id;sensor_type;location;lat;lon;timestamp;pressure;altitude;pressure_sealevel;temperature;humidity
77410;BME280;66481;51.332;22.804;2023-04-26T00:03:32;98572.38;;;5.62;97.59
77410;BME280;66481;51.332;22.804;2023-04-26T00:07:33;98559.25;;;5.62;97.46
77410;BME280;66481;51.332;22.804;2023-04-26T00:11:35;98566.09;;;5.64;97.39
77410;BME280;66481;51.332;22.804;2023-04-26T00:15:36;98579.44;;;5.61;97.30
77410;BME280;66481;51.332;22.804;2023-04-26T00:19:37;98575.63;;;5.65;97.79
77410;BME280;66481;51.332;22.804;2023-04-26T00:23:39;98576.81;;;5.61;97.79
77410;BME280;66481;51.332;22.804;2023-04-26T00:27:40;98574.28;;;5.60;97.59
77410;BME280;66481;51.332;22.804;2023-04-26T00:31:41;98576.28;;;5.56;97.28
77410;BME280;66481;51.332;22.804;2023-04-26T00:35:42;98581.75;;;5.53;97.51
77410;BME280;66481;51.332;22.804;2023-04-26T00:39:44;98583.53;;;5.53;96.80
77410;BME280;66481;51.332;22.804;2023-04-26T00:43:45;98592.34;;;5.52;97.68
77410;BME280;66481;51.332;22.804;2023-04-26T00:47:46;98600.22;;;5.52;97.00
77410;BME280;66481;51.332;22.804;2023-04-26T00:51:48;98599.91;;;5.56;96.96
77410;BME280;66481;51.332;22.804;2023-04-26T00:55:50;98593.31;;;5.51;97.24
77410;BME280;66481;51.332;22.804;2023-04-26T00:59:51;98599.50;;;5.50;97.33
77410;BME280;66481;51.332;22.804;2023-04-26T01:03:52;98603.91;;;5.49;97.65
77410;BME280;66481;51.332;22.804;2023-04-26T01:07:53;98606.22;;;5.54;97.88
77410;BME280;66481;51.332;22.804;2023-04-26T01:11:55;98610.00;;;5.50;98.54
77410;BME280;66481;51.332;22.804;2023-04-26T01:15:58;98615.66;;;5.56;98.53
77410;BME280;66481;51.332;22.804;2023-04-26T01:19:59;98613.53;;;5.61;98.51
77410;BME280;66481;51.332;22.804;2023-04-26T01:24:00;98627.38;;;5.63;98.14
77410;BME280;66481;51.332;22.804;2023-04-26T01:28:02;98625.59;;;5.64;97.65
77410;BME280;66481;51.332;22.804;2023-04-26T01:32:03;98619.50;;;5.63;98.37
77410;BME280;66481;51.332;22.804;2023-04-26T01:36:08;98631.91;;;5.61;98.43
77410;BME280;66481;51.332;22.804;2023-04-26T01:40:12;98634.31;;;5.64;98.37
77410;BME280;66481;51.332;22.804;2023-04-26T01:44:13;98632.31;;;5.68;98.35
77410;BME280;66481;51.332;22.804;2023-04-26T01:48:15;98646.16;;;5.70;98.79
77410;BME280;66481;51.332;22.804;2023-04-26T01:52:16;98654.59;;;5.62;99.18
77410;BME280;66481;51.332;22.804;2023-04-26T01:56:18;98642.28;;;5.63;98.97
77410;BME280;66481;51.332;22.804;2023-04-26T02:00:19;98651.50;;;5.69;98.28
77410;BME280;66481;51.332;22.804;2023-04-26T02:04:20;98649.84;;;5.68;98.59
77410;BME280;66481;51.332;22.804;2023-04-26T02:08:21;98649.00;;;5.67;98.25
77410;BME280;66481;51.332;22.804;2023-04-26T02:12:22;98647.88;;;5.58;99.13
77410;BME280;66481;51.332;22.804;2023-04-26T02:16:23;98634.22;;;5.66;98.90
77410;BME280;66481;51.332;22.804;2023-04-26T02:20:24;98644.41;;;5.58;98.68
77410;BME280;66481;51.332;22.804;2023-04-26T02:24:25;98641.22;;;5.65;99.39
77410;BME280;66481;51.332;22.804;2023-04-26T02:28:26;98648.28;;;5.65;98.67
77410;BME280;66481;51.332;22.804;2023-04-26T02:32:27;98646.09;;;5.59;98.59
77410;BME280;66481;51.332;22.804;2023-04-26T02:36:28;98645.66;;;5.65;98.51
77410;BME280;66481;51.332;22.804;2023-04-26T02:40:29;98653.72;;;5.62;99.00
77410;BME280;66481;51.332;22.804;2023-04-26T02:44:31;98655.41;;;5.63;98.75
77410;BME280;66481;51.332;22.804;2023-04-26T02:48:32;98655.84;;;5.57;97.90
77410;BME280;66481;51.332;22.804;2023-04-26T02:52:33;98656.91;;;5.41;97.33
77410;BME280;66481;51.332;22.804;2023-04-26T02:56:35;98666.78;;;5.38;97.89
77410;BME280;66481;51.332;22.804;2023-04-26T03:00:36;98666.66;;;5.39;98.00
77410;BME280;66481;51.332;22.804;2023-04-26T03:04:38;98670.16;;;5.40;97.62
77410;BME280;66481;51.332;22.804;2023-04-26T03:08:39;98670.25;;;5.25;96.51
77410;BME280;66481;51.332;22.804;2023-04-26T03:12:40;98673.41;;;5.18;96.13
77410;BME280;66481;51.332;22.804;2023-04-26T03:16:42;98674.66;;;5.12;96.52
77410;BME280;66481;51.332;22.804;2023-04-26T03:20:46;98684.41;;;5.10;96.35
77410;BME280;66481;51.332;22.804;2023-04-26T03:24:48;98696.06;;;5.06;96.70
77410;BME280;66481;51.332;22.804;2023-04-26T03:28:49;98703.72;;;5.09;95.94
77410;BME280;66481;51.332;22.804;2023-04-26T03:32:50;98705.72;;;5.05;97.21
77410;BME280;66481;51.332;22.804;2023-04-26T03:36:52;98722.56;;;5.01;96.16
77410;BME280;66481;51.332;22.804;2023-04-26T03:40:52;98717.03;;;4.93;95.89
77410;BME280;66481;51.332;22.804;2023-04-26T03:44:53;98728.25;;;4.95;96.04
77410;BME280;66481;51.332;22.804;2023-04-26T03:48:54;98737.56;;;4.86;96.27
77410;BME280;66481;51.332;22.804;2023-04-26T03:52:55;98735.22;;;4.82;94.79
77410;BME280;66481;51.332;22.804;2023-04-26T03:56:56;98758.19;;;4.91;95.02
77410;BME280;66481;51.332;22.804;2023-04-26T04:00:57;98753.03;;;4.77;92.71
77410;BME280;66481;51.332;22.804;2023-04-26T04:04:58;98758.38;;;4.75;93.03
77410;BME280;66481;51.332;22.804;2023-04-26T04:08:59;98764.44;;;4.76;92.83
77410;BME280;66481;51.332;22.804;2023-04-26T04:13:00;98772.84;;;4.81;92.56
77410;BME280;66481;51.332;22.804;2023-04-26T04:17:01;98780.81;;;4.79;92.98
77410;BME280;66481;51.332;22.804;2023-04-26T04:21:02;98770.66;;;4.87;93.12
77410;BME280;66481;51.332;22.804;2023-04-26T04:25:03;98778.16;;;4.94;93.45
77410;BME280;66481;51.332;22.804;2023-04-26T04:29:05;98774.63;;;5.07;93.26
77410;BME280;66481;51.332;22.804;2023-04-26T04:33:08;98786.75;;;5.08;92.81
77410;BME280;66481;51.332;22.804;2023-04-26T04:37:09;98792.97;;;5.07;92.28
77410;BME280;66481;51.332;22.804;2023-04-26T04:41:11;98798.22;;;5.07;91.62
77410;BME280;66481;51.332;22.804;2023-04-26T04:45:32;98779.13;;;5.18;91.58
77410;BME280;66481;51.332;22.804;2023-04-26T04:49:33;98791.22;;;5.34;91.84
77410;BME280;66481;51.332;22.804;2023-04-26T04:53:34;98792.19;;;5.58;90.38
77410;BME280;66481;51.332;22.804;2023-04-26T04:57:35;98788.72;;;5.58;90.13
77410;BME280;66481;51.332;22.804;2023-04-26T05:01:36;98805.94;;;5.62;88.95
77410;BME280;66481;51.332;22.804;2023-04-26T05:05:38;98810.88;;;5.54;89.61
77410;BME280;66481;51.332;22.804;2023-04-26T05:09:39;98814.63;;;5.37;88.44
77410;BME280;66481;51.332;22.804;2023-04-26T05:13:40;98813.09;;;5.86;86.92
77410;BME280;66481;51.332;22.804;2023-04-26T05:17:41;98824.44;;;6.25;86.46
77410;BME280;66481;51.332;22.804;2023-04-26T05:21:42;98821.81;;;6.25;85.25
77410;BME280;66481;51.332;22.804;2023-04-26T05:25:43;98829.41;;;6.53;84.78
77410;BME280;66481;51.332;22.804;2023-04-26T05:29:44;98829.69;;;7.45;80.04
77410;BME280;66481;51.332;22.804;2023-04-26T05:33:46;98828.50;;;8.07;78.00
77410;BME280;66481;51.332;22.804;2023-04-26T05:37:47;98831.38;;;8.16;74.52
77410;BME280;66481;51.332;22.804;2023-04-26T05:41:48;98838.66;;;8.01;75.15
77410;BME280;66481;51.332;22.804;2023-04-26T05:45:53;98844.69;;;8.03;75.17
77410;BME280;66481;51.332;22.804;2023-04-26T05:49:54;98837.22;;;8.08;75.21
77410;BME280;66481;51.332;22.804;2023-04-26T05:53:55;98840.63;;;8.55;75.56
77410;BME280;66481;51.332;22.804;2023-04-26T05:57:57;98848.59;;;7.86;75.86
77410;BME280;66481;51.332;22.804;2023-04-26T06:01:58;98859.63;;;8.25;73.22
77410;BME280;66481;51.332;22.804;2023-04-26T06:05:59;98860.88;;;8.55;72.16
77410;BME280;66481;51.332;22.804;2023-04-26T06:10:01;98863.34;;;8.34;72.06
77410;BME280;66481;51.332;22.804;2023-04-26T06:14:02;98856.72;;;9.28;69.62
77410;BME280;66481;51.332;22.804;2023-04-26T06:18:06;98850.72;;;10.31;66.74
77410;BME280;66481;51.332;22.804;2023-04-26T06:22:07;98848.25;;;11.78;61.37
77410;BME280;66481;51.332;22.804;2023-04-26T06:26:08;98848.13;;;12.64;58.88
77410;BME280;66481;51.332;22.804;2023-04-26T06:30:09;98854.41;;;11.59;60.51
77410;BME280;66481;51.332;22.804;2023-04-26T06:34:11;98864.81;;;10.21;65.31
77410;BME280;66481;51.332;22.804;2023-04-26T06:38:12;98852.16;;;9.30;67.90
77410;BME280;66481;51.332;22.804;2023-04-26T06:42:13;98881.50;;;9.16;69.65
77410;BME280;66481;51.332;22.804;2023-04-26T06:46:15;98878.03;;;9.04;71.66
77410;BME280;66481;51.332;22.804;2023-04-26T06:50:16;98889.81;;;8.89;72.22
77410;BME280;66481;51.332;22.804;2023-04-26T06:54:18;98896.81;;;8.67;72.23
77410;BME280;66481;51.332;22.804;2023-04-26T06:58:19;98903.38;;;8.39;71.08
77410;BME280;66481;51.332;22.804;2023-04-26T07:02:21;98899.66;;;8.19;72.43
77410;BME280;66481;51.332;22.804;2023-04-26T07:06:24;98906.84;;;8.28;73.28
77410;BME280;66481;51.332;22.804;2023-04-26T07:10:25;98905.72;;;9.10;71.95
77410;BME280;66481;51.332;22.804;2023-04-26T07:14:27;98906.41;;;8.79;71.62
77410;BME280;66481;51.332;22.804;2023-04-26T07:18:28;98919.69;;;8.66;73.17
77410;BME280;66481;51.332;22.804;2023-04-26T07:22:29;98911.44;;;8.82;73.68
77410;BME280;66481;51.332;22.804;2023-04-26T07:26:30;98915.56;;;9.08;69.07
77410;BME280;66481;51.332;22.804;2023-04-26T07:30:31;98916.78;;;9.47;69.58
77410;BME280;66481;51.332;22.804;2023-04-26T07:34:32;98929.75;;;9.39;69.01
77410;BME280;66481;51.332;22.804;2023-04-26T07:38:33;98930.25;;;8.66;71.66
77410;BME280;66481;51.332;22.804;2023-04-26T07:42:34;98937.75;;;8.37;71.42
77410;BME280;66481;51.332;22.804;2023-04-26T07:46:35;98940.03;;;8.19;72.13
77410;BME280;66481;51.332;22.804;2023-04-26T07:50:37;98949.69;;;8.07;70.97
77410;BME280;66481;51.332;22.804;2023-04-26T07:54:38;98950.66;;;8.18;70.99
77410;BME280;66481;51.332;22.804;2023-04-26T07:58:40;98952.66;;;8.61;72.14
77410;BME280;66481;51.332;22.804;2023-04-26T08:02:41;98954.00;;;8.78;69.81
77410;BME280;66481;51.332;22.804;2023-04-26T08:06:42;98951.19;;;9.13;68.90
77410;BME280;66481;51.332;22.804;2023-04-26T08:10:44;98962.84;;;9.11;68.14
77410;BME280;66481;51.332;22.804;2023-04-26T08:14:46;98955.91;;;8.87;68.07
77410;BME280;66481;51.332;22.804;2023-04-26T08:18:46;98956.13;;;8.84;67.50
77410;BME280;66481;51.332;22.804;2023-04-26T08:22:47;98953.69;;;9.26;68.15
77410;BME280;66481;51.332;22.804;2023-04-26T08:26:48;98953.91;;;9.34;67.19
77410;BME280;66481;51.332;22.804;2023-04-26T08:30:50;98942.75;;;9.63;66.65
77410;BME280;66481;51.332;22.804;2023-04-26T08:34:50;98943.94;;;9.91;65.25
77410;BME280;66481;51.332;22.804;2023-04-26T08:38:51;98948.47;;;9.47;63.96
77410;BME280;66481;51.332;22.804;2023-04-26T08:42:52;98955.19;;;8.96;68.42
77410;BME280;66481;51.332;22.804;2023-04-26T08:47:03;98955.91;;;8.98;69.43
77410;BME280;66481;51.332;22.804;2023-04-26T08:51:08;98950.00;;;9.50;66.76
77410;BME280;66481;51.332;22.804;2023-04-26T08:55:13;98939.53;;;9.59;64.04
77410;BME280;66481;51.332;22.804;2023-04-26T08:59:16;98949.28;;;9.48;63.96
77410;BME280;66481;51.332;22.804;2023-04-26T09:03:18;98952.16;;;9.01;62.87
77410;BME280;66481;51.332;22.804;2023-04-26T09:07:41;98954.56;;;9.15;65.60
77410;BME280;66481;51.332;22.804;2023-04-26T09:11:56;98958.59;;;9.74;64.12
77410;BME280;66481;51.332;22.804;2023-04-26T09:15:59;98966.03;;;10.23;59.21
77410;BME280;66481;51.332;22.804;2023-04-26T09:20:01;98959.09;;;11.24;58.18
77410;BME280;66481;51.332;22.804;2023-04-26T09:24:06;98964.53;;;11.42;56.37
77410;BME280;66481;51.332;22.804;2023-04-26T09:28:21;98969.28;;;10.57;57.72
77410;BME280;66481;51.332;22.804;2023-04-26T09:32:22;98979.53;;;10.08;58.08
77410;BME280;66481;51.332;22.804;2023-04-26T09:36:24;98993.41;;;9.13;61.48
77410;BME280;66481;51.332;22.804;2023-04-26T09:40:28;98992.25;;;8.72;64.50
77410;BME280;66481;51.332;22.804;2023-04-26T09:44:29;99004.09;;;8.20;63.91
77410;BME280;66481;51.332;22.804;2023-04-26T09:54:05;98996.91;;;9.02;63.17
77410;BME280;66481;51.332;22.804;2023-04-26T09:58:08;98986.19;;;9.38;60.24
77410;BME280;66481;51.332;22.804;2023-04-26T10:06:15;98991.50;;;9.04;59.69
77410;BME280;66481;51.332;22.804;2023-04-26T10:10:17;98993.06;;;9.29;59.00
77410;BME280;66481;51.332;22.804;2023-04-26T10:14:18;99000.25;;;9.04;57.58
77410;BME280;66481;51.332;22.804;2023-04-26T10:18:20;98995.47;;;9.21;58.33
77410;BME280;66481;51.332;22.804;2023-04-26T10:22:28;98981.56;;;10.89;55.01
77410;BME280;66481;51.332;22.804;2023-04-26T10:30:55;98979.44;;;10.83;51.41
77410;BME280;66481;51.332;22.804;2023-04-26T10:35:12;98987.53;;;9.97;50.76
77410;BME280;66481;51.332;22.804;2023-04-26T10:39:17;98995.94;;;9.70;52.00
77410;BME280;66481;51.332;22.804;2023-04-26T10:43:29;99005.03;;;9.22;55.42
77410;BME280;66481;51.332;22.804;2023-04-26T10:47:34;99000.03;;;8.85;55.37
77410;BME280;66481;51.332;22.804;2023-04-26T10:51:37;99011.06;;;8.68;56.75
77410;BME280;66481;51.332;22.804;2023-04-26T11:00:41;99024.00;;;9.16;56.22
77410;BME280;66481;51.332;22.804;2023-04-26T11:04:50;99022.50;;;9.57;54.94
77410;BME280;66481;51.332;22.804;2023-04-26T11:08:52;99011.31;;;11.02;50.60
77410;BME280;66481;51.332;22.804;2023-04-26T11:13:01;99015.41;;;11.26;51.63
77410;BME280;66481;51.332;22.804;2023-04-26T11:17:04;99024.53;;;11.02;51.49
77410;BME280;66481;51.332;22.804;2023-04-26T11:21:06;99027.41;;;10.26;52.88
77410;BME280;66481;51.332;22.804;2023-04-26T11:25:07;99029.25;;;9.38;53.28
77410;BME280;66481;51.332;22.804;2023-04-26T11:29:09;99041.03;;;8.78;54.37
77410;BME280;66481;51.332;22.804;2023-04-26T11:33:17;99059.44;;;8.44;55.85
77410;BME280;66481;51.332;22.804;2023-04-26T11:37:19;99047.97;;;8.32;57.11
77410;BME280;66481;51.332;22.804;2023-04-26T11:41:22;99052.41;;;8.32;57.59
77410;BME280;66481;51.332;22.804;2023-04-26T11:45:23;99056.22;;;8.52;57.68
77410;BME280;66481;51.332;22.804;2023-04-26T11:49:25;99049.09;;;8.99;57.83
77410;BME280;66481;51.332;22.804;2023-04-26T11:53:39;99038.84;;;9.62;55.97
77410;BME280;66481;51.332;22.804;2023-04-26T11:57:40;99034.56;;;10.14;55.27
77410;BME280;66481;51.332;22.804;2023-04-26T12:01:49;99040.78;;;10.46;52.59
77410;BME280;66481;51.332;22.804;2023-04-26T12:05:55;99031.59;;;10.08;52.89
77410;BME280;66481;51.332;22.804;2023-04-26T12:10:16;99046.47;;;9.65;55.13
77410;BME280;66481;51.332;22.804;2023-04-26T12:14:17;99043.28;;;9.50;55.14
77410;BME280;66481;51.332;22.804;2023-04-26T12:18:18;99047.78;;;9.16;56.60
77410;BME280;66481;51.332;22.804;2023-04-26T12:22:20;99056.28;;;8.97;56.92
77410;BME280;66481;51.332;22.804;2023-04-26T12:26:47;99060.34;;;8.78;57.51
77410;BME280;66481;51.332;22.804;2023-04-26T12:30:49;99056.38;;;8.73;56.44
77410;BME280;66481;51.332;22.804;2023-04-26T12:34:53;99058.69;;;9.00;56.71
77410;BME280;66481;51.332;22.804;2023-04-26T12:38:55;99063.25;;;9.09;56.68
77410;BME280;66481;51.332;22.804;2023-04-26T12:42:57;99069.69;;;9.39;57.09
77410;BME280;66481;51.332;22.804;2023-04-26T12:46:58;99069.47;;;9.53;55.16
77410;BME280;66481;51.332;22.804;2023-04-26T12:50:59;99060.75;;;9.74;55.85
77410;BME280;66481;51.332;22.804;2023-04-26T12:55:00;99074.88;;;9.29;53.96
77410;BME280;66481;51.332;22.804;2023-04-26T12:59:01;99074.28;;;9.14;56.24
77410;BME280;66481;51.332;22.804;2023-04-26T13:03:02;99079.91;;;8.76;57.02
77410;BME280;66481;51.332;22.804;2023-04-26T13:07:04;99093.88;;;8.54;56.98
77410;BME280;66481;51.332;22.804;2023-04-26T13:11:05;99097.81;;;8.24;56.79
77410;BME280;66481;51.332;22.804;2023-04-26T13:15:07;99093.44;;;8.36;58.97
77410;BME280;66481;51.332;22.804;2023-04-26T13:19:09;99101.28;;;8.60;58.05
77410;BME280;66481;51.332;22.804;2023-04-26T13:23:11;99095.38;;;8.92;54.07
77410;BME280;66481;51.332;22.804;2023-04-26T13:27:12;99097.41;;;9.56;54.38
77410;BME280;66481;51.332;22.804;2023-04-26T13:31:14;99096.47;;;9.57;53.02
77410;BME280;66481;51.332;22.804;2023-04-26T13:39:56;99102.59;;;9.57;52.43
77410;BME280;66481;51.332;22.804;2023-04-26T13:44:02;99113.59;;;9.74;51.07
77410;BME280;66481;51.332;22.804;2023-04-26T13:48:04;99098.72;;;9.62;50.63
77410;BME280;66481;51.332;22.804;2023-04-26T13:52:05;99106.19;;;9.68;49.71
77410;BME280;66481;51.332;22.804;2023-04-26T13:56:06;99103.66;;;9.66;51.75
77410;BME280;66481;51.332;22.804;2023-04-26T14:00:09;99111.22;;;9.59;51.55
77410;BME280;66481;51.332;22.804;2023-04-26T14:04:11;99123.59;;;9.36;50.53
77410;BME280;66481;51.332;22.804;2023-04-26T14:08:13;99122.75;;;9.13;47.50
77410;BME280;66481;51.332;22.804;2023-04-26T14:12:14;99124.41;;;9.26;47.45
77410;BME280;66481;51.332;22.804;2023-04-26T14:16:15;99127.31;;;9.45;47.33
77410;BME280;66481;51.332;22.804;2023-04-26T14:20:17;99128.03;;;9.47;48.13
77410;BME280;66481;51.332;22.804;2023-04-26T14:24:18;99134.75;;;9.29;50.31
77410;BME280;66481;51.332;22.804;2023-04-26T14:28:20;99133.91;;;9.17;48.67
77410;BME280;66481;51.332;22.804;2023-04-26T14:32:22;99138.22;;;9.18;48.31
77410;BME280;66481;51.332;22.804;2023-04-26T14:36:24;99138.13;;;9.42;45.59
77410;BME280;66481;51.332;22.804;2023-04-26T14:40:25;99137.88;;;9.56;44.93
77410;BME280;66481;51.332;22.804;2023-04-26T14:44:29;99157.78;;;9.27;46.35
77410;BME280;66481;51.332;22.804;2023-04-26T14:48:30;99154.69;;;9.33;47.69
77410;BME280;66481;51.332;22.804;2023-04-26T14:52:34;99160.28;;;9.17;47.03
77410;BME280;66481;51.332;22.804;2023-04-26T14:56:36;99166.19;;;9.32;46.18
77410;BME280;66481;51.332;22.804;2023-04-26T15:00:37;99160.31;;;9.51;48.35
77410;BME280;66481;51.332;22.804;2023-04-26T15:04:39;99169.69;;;9.44;47.13
77410;BME280;66481;51.332;22.804;2023-04-26T15:08:40;99175.53;;;9.02;47.71
77410;BME280;66481;51.332;22.804;2023-04-26T15:12:41;99185.44;;;8.87;49.01
77410;BME280;66481;51.332;22.804;2023-04-26T15:16:43;99182.44;;;8.56;49.23
77410;BME280;66481;51.332;22.804;2023-04-26T15:20:45;99181.03;;;8.39;49.64
77410;BME280;66481;51.332;22.804;2023-04-26T15:24:46;99188.56;;;8.20;48.22
77410;BME280;66481;51.332;22.804;2023-04-26T15:28:49;99196.72;;;8.17;50.27
77410;BME280;66481;51.332;22.804;2023-04-26T15:32:50;99187.03;;;8.04;49.47
77410;BME280;66481;51.332;22.804;2023-04-26T15:36:52;99194.09;;;8.17;49.13
77410;BME280;66481;51.332;22.804;2023-04-26T15:40:54;99185.28;;;8.05;49.58
77410;BME280;66481;51.332;22.804;2023-04-26T15:44:55;99182.75;;;8.03;49.00
77410;BME280;66481;51.332;22.804;2023-04-26T15:48:56;99186.09;;;8.05;49.90
77410;BME280;66481;51.332;22.804;2023-04-26T15:52:57;99200.47;;;8.01;50.94
77410;BME280;66481;51.332;22.804;2023-04-26T15:56:59;99198.56;;;7.90;50.88
77410;BME280;66481;51.332;22.804;2023-04-26T16:01:00;99201.34;;;7.76;49.91
77410;BME280;66481;51.332;22.804;2023-04-26T16:05:01;99219.69;;;7.65;50.07
77410;BME280;66481;51.332;22.804;2023-04-26T16:09:03;99221.06;;;7.70;52.10
77410;BME280;66481;51.332;22.804;2023-04-26T16:13:09;99221.69;;;7.74;51.49
77410;BME280;66481;51.332;22.804;2023-04-26T16:17:10;99228.63;;;7.88;51.36
77410;BME280;66481;51.332;22.804;2023-04-26T16:21:13;99227.78;;;7.75;52.12
77410;BME280;66481;51.332;22.804;2023-04-26T16:25:16;99232.22;;;7.61;52.30
77410;BME280;66481;51.332;22.804;2023-04-26T16:29:17;99237.59;;;7.47;51.67
77410;BME280;66481;51.332;22.804;2023-04-26T16:33:19;99246.97;;;7.38;52.34
77410;BME280;66481;51.332;22.804;2023-04-26T16:37:21;99249.78;;;7.35;53.01
77410;BME280;66481;51.332;22.804;2023-04-26T16:41:24;99248.88;;;7.36;54.37
77410;BME280;66481;51.332;22.804;2023-04-26T16:45:28;99258.97;;;7.29;52.49
77410;BME280;66481;51.332;22.804;2023-04-26T16:49:32;99255.16;;;7.21;53.68
77410;BME280;66481;51.332;22.804;2023-04-26T16:53:34;99266.31;;;7.11;53.83
77410;BME280;66481;51.332;22.804;2023-04-26T16:57:35;99273.63;;;6.93;54.66
77410;BME280;66481;51.332;22.804;2023-04-26T17:01:37;99280.38;;;6.70;54.21
77410;BME280;66481;51.332;22.804;2023-04-26T17:05:45;99280.78;;;6.64;54.76
77410;BME280;66481;51.332;22.804;2023-04-26T17:09:51;99287.19;;;6.60;55.39
77410;BME280;66481;51.332;22.804;2023-04-26T17:13:56;99296.22;;;6.56;55.69
77410;BME280;66481;51.332;22.804;2023-04-26T17:17:59;99284.69;;;6.44;57.02
77410;BME280;66481;51.332;22.804;2023-04-26T17:22:05;99301.19;;;6.46;55.46
77410;BME280;66481;51.332;22.804;2023-04-26T17:26:07;99305.16;;;6.39;56.37
77410;BME280;66481;51.332;22.804;2023-04-26T17:30:10;99307.88;;;6.37;57.06
77410;BME280;66481;51.332;22.804;2023-04-26T17:34:12;99313.59;;;6.30;56.77
77410;BME280;66481;51.332;22.804;2023-04-26T17:38:16;99324.41;;;6.11;58.40
77410;BME280;66481;51.332;22.804;2023-04-26T17:42:19;99320.03;;;6.11;58.77
77410;BME280;66481;51.332;22.804;2023-04-26T17:46:21;99322.09;;;6.06;58.76
77410;BME280;66481;51.332;22.804;2023-04-26T17:50:23;99325.81;;;6.02;59.11
77410;BME280;66481;51.332;22.804;2023-04-26T17:54:27;99327.63;;;6.01;59.49
77410;BME280;66481;51.332;22.804;2023-04-26T17:58:29;99324.69;;;5.92;59.51
77410;BME280;66481;51.332;22.804;2023-04-26T18:02:31;99340.31;;;5.93;59.85
77410;BME280;66481;51.332;22.804;2023-04-26T18:06:33;99339.75;;;5.88;59.66
77410;BME280;66481;51.332;22.804;2023-04-26T18:10:37;99348.59;;;5.87;60.00
77410;BME280;66481;51.332;22.804;2023-04-26T18:14:40;99349.25;;;5.76;60.34
77410;BME280;66481;51.332;22.804;2023-04-26T18:18:46;99353.47;;;5.93;59.53
77410;BME280;66481;51.332;22.804;2023-04-26T18:22:48;99348.31;;;5.92;59.19
77410;BME280;66481;51.332;22.804;2023-04-26T18:26:50;99370.44;;;5.88;59.92
77410;BME280;66481;51.332;22.804;2023-04-26T18:30:57;99365.34;;;5.84;60.78
77410;BME280;66481;51.332;22.804;2023-04-26T18:35:00;99365.84;;;5.77;61.00
77410;BME280;66481;51.332;22.804;2023-04-26T18:39:05;99378.56;;;5.69;60.95
77410;BME280;66481;51.332;22.804;2023-04-26T18:43:06;99381.66;;;5.75;61.20
77410;BME280;66481;51.332;22.804;2023-04-26T18:47:07;99387.28;;;5.69;60.61
77410;BME280;66481;51.332;22.804;2023-04-26T18:51:09;99394.94;;;5.58;60.90
77410;BME280;66481;51.332;22.804;2023-04-26T18:55:11;99399.34;;;5.57;61.72
77410;BME280;66481;51.332;22.804;2023-04-26T18:59:12;99400.16;;;5.43;62.24
77410;BME280;66481;51.332;22.804;2023-04-26T19:03:17;99401.41;;;5.36;63.18
77410;BME280;66481;51.332;22.804;2023-04-26T19:07:19;99399.16;;;5.30;62.62
77410;BME280;66481;51.332;22.804;2023-04-26T19:11:20;99400.84;;;5.31;62.25
77410;BME280;66481;51.332;22.804;2023-04-26T19:15:22;99409.31;;;5.20;63.10
77410;BME280;66481;51.332;22.804;2023-04-26T19:19:24;99410.78;;;5.26;63.95
77410;BME280;66481;51.332;22.804;2023-04-26T19:23:27;99407.78;;;5.32;63.11
77410;BME280;66481;51.332;22.804;2023-04-26T19:27:30;99411.06;;;5.36;63.09
77410;BME280;66481;51.332;22.804;2023-04-26T19:31:32;99397.19;;;5.34;62.61
77410;BME280;66481;51.332;22.804;2023-04-26T19:35:35;99410.66;;;5.27;63.96
77410;BME280;66481;51.332;22.804;2023-04-26T19:39:36;99416.44;;;5.18;64.36
77410;BME280;66481;51.332;22.804;2023-04-26T19:43:37;99407.56;;;5.21;63.88
77410;BME280;66481;51.332;22.804;2023-04-26T19:47:40;99415.75;;;5.31;64.25
77410;BME280;66481;51.332;22.804;2023-04-26T19:51:42;99417.78;;;5.25;63.66
77410;BME280;66481;51.332;22.804;2023-04-26T19:55:44;99403.22;;;5.20;64.32
77410;BME280;66481;51.332;22.804;2023-04-26T19:59:46;99413.81;;;5.18;65.02
77410;BME280;66481;51.332;22.804;2023-04-26T20:03:48;99413.31;;;5.12;64.61
77410;BME280;66481;51.332;22.804;2023-04-26T20:07:49;99413.00;;;5.02;65.05
77410;BME280;66481;51.332;22.804;2023-04-26T20:11:52;99419.75;;;5.06;65.04
77410;BME280;66481;51.332;22.804;2023-04-26T20:15:53;99415.84;;;5.13;64.78
77410;BME280;66481;51.332;22.804;2023-04-26T20:19:55;99423.09;;;5.24;63.87
77410;BME280;66481;51.332;22.804;2023-04-26T20:23:57;99424.22;;;5.20;63.79
77410;BME280;66481;51.332;22.804;2023-04-26T20:27:59;99427.69;;;5.20;63.83
77410;BME280;66481;51.332;22.804;2023-04-26T20:32:02;99426.25;;;5.15;64.42
77410;BME280;66481;51.332;22.804;2023-04-26T20:36:04;99432.09;;;5.20;64.67
77410;BME280;66481;51.332;22.804;2023-04-26T20:40:06;99432.25;;;5.17;64.92
77410;BME280;66481;51.332;22.804;2023-04-26T20:44:08;99426.84;;;5.20;63.61
77410;BME280;66481;51.332;22.804;2023-04-26T20:48:10;99439.88;;;5.21;63.88
77410;BME280;66481;51.332;22.804;2023-04-26T20:52:11;99444.44;;;5.18;64.55
77410;BME280;66481;51.332;22.804;2023-04-26T20:56:13;99428.13;;;5.13;65.12
77410;BME280;66481;51.332;22.804;2023-04-26T21:00:14;99438.63;;;5.13;64.20
77410;BME280;66481;51.332;22.804;2023-04-26T21:04:16;99441.91;;;5.16;64.53
77410;BME280;66481;51.332;22.804;2023-04-26T21:08:17;99457.06;;;5.11;64.34
77410;BME280;66481;51.332;22.804;2023-04-26T21:12:18;99462.38;;;5.25;64.19
77410;BME280;66481;51.332;22.804;2023-04-26T21:16:20;99454.50;;;5.25;64.00
77410;BME280;66481;51.332;22.804;2023-04-26T21:20:21;99459.00;;;5.23;64.24
77410;BME280;66481;51.332;22.804;2023-04-26T21:24:22;99462.53;;;5.22;65.77
77410;BME280;66481;51.332;22.804;2023-04-26T21:28:23;99458.41;;;5.18;66.60
77410;BME280;66481;51.332;22.804;2023-04-26T21:32:24;99459.75;;;5.09;66.76
77410;BME280;66481;51.332;22.804;2023-04-26T21:36:25;99468.22;;;5.15;66.76
77410;BME280;66481;51.332;22.804;2023-04-26T21:40:26;99466.34;;;5.01;67.98
77410;BME280;66481;51.332;22.804;2023-04-26T21:44:27;99469.81;;;5.01;68.07
77410;BME280;66481;51.332;22.804;2023-04-26T21:48:28;99465.69;;;4.97;69.34